Terminal Aerodrome Forecast
Issued by NWS

Home | Current Version | Previous Version | Text Only | Print | Product List | Glossary On
Versions: 1 2 3 4 5 6 7 8 9 10 11 12 13 14
000
FTUS42 KTBW 280534
TAFRSW
TAF
KRSW 280534Z 2806/2906 VRB05KT P6SM FEW035 SCT080 OVC200
     FM281000 VRB06KT P6SM VCSH SCT010 BKN030 OVC080
     FM281400 15009KT P6SM VCTS SCT010CB BKN030 OVC080
     FM281800 22010KT 6SM -RA VCTS SCT010CB BKN035 OVC080
     FM290000 VRB06KT P6SM VCSH SCT007 BKN025=

USA.gov is the U.S. government's official web portal to all federal, state and local government web resources and services.